createdAt,value
2022-11-16T00:01:40.510Z,8.77
2022-11-16T00:04:08.280Z,8.82
2022-11-16T00:06:35.986Z,8.85
2022-11-16T00:09:22.068Z,8.84
2022-11-16T00:11:51.121Z,8.75
2022-11-16T00:14:19.637Z,8.71
2022-11-16T00:16:48.793Z,8.77
2022-11-16T00:19:16.686Z,8.74
2022-11-16T00:21:44.499Z,8.70
2022-11-16T00:24:14.749Z,8.74
2022-11-16T00:26:42.931Z,8.58
2022-11-16T00:29:15.050Z,8.80
2022-11-16T00:31:42.900Z,8.79
2022-11-16T00:34:12.069Z,8.80
2022-11-16T00:36:39.817Z,8.81
2022-11-16T00:39:07.891Z,8.73
2022-11-16T00:41:35.577Z,8.70
2022-11-16T00:44:03.373Z,8.60
2022-11-16T00:46:31.115Z,8.72
2022-11-16T00:48:58.854Z,8.80
2022-11-16T00:51:28.111Z,8.84
2022-11-16T00:53:55.920Z,8.81
2022-11-16T00:56:23.664Z,8.87
2022-11-16T00:58:51.552Z,8.81
2022-11-16T01:01:19.515Z,8.99
2022-11-16T01:03:47.721Z,9.01
2022-11-16T01:06:16.680Z,9.06
2022-11-16T01:08:46.424Z,9.07
2022-11-16T01:11:33.755Z,9.09
2022-11-16T01:14:04.202Z,9.08
2022-11-16T01:16:32.249Z,9.09
2022-11-16T01:19:00.163Z,9.09
2022-11-16T01:21:28.528Z,9.14
2022-11-16T01:23:58.093Z,9.17
2022-11-16T01:26:26.139Z,9.12
2022-11-16T01:28:53.974Z,9.13
2022-11-16T01:31:22.145Z,9.08
2022-11-16T01:33:49.971Z,9.06
2022-11-16T01:36:17.738Z,9.09
2022-11-16T01:38:46.651Z,9.08
2022-11-16T01:41:18.204Z,9.12
2022-11-16T01:43:55.334Z,9.11
2022-11-16T01:46:23.694Z,9.16
2022-11-16T01:48:55.509Z,9.16
2022-11-16T01:51:24.311Z,9.24
2022-11-16T01:53:52.469Z,9.16
2022-11-16T01:56:22.685Z,9.18
2022-11-16T01:58:50.992Z,9.23
2022-11-16T02:01:18.818Z,9.32
2022-11-16T02:03:46.629Z,9.37
2022-11-16T02:06:31.654Z,9.32
2022-11-16T02:09:32.789Z,9.40
2022-11-16T02:12:16.814Z,9.41
2022-11-16T02:15:00.794Z,9.41
2022-11-16T02:17:41.619Z,9.44
2022-11-16T02:20:31.734Z,9.43
2022-11-16T02:23:25.489Z,9.46
2022-11-16T02:26:05.648Z,9.40
2022-11-16T02:28:49.410Z,9.42
2022-11-16T02:31:24.673Z,9.41
2022-11-16T02:33:56.423Z,9.34
2022-11-16T02:36:26.188Z,9.41
2022-11-16T02:38:59.817Z,9.43
2022-11-16T02:41:30.446Z,9.47
2022-11-16T02:44:03.358Z,9.43
2022-11-16T02:46:37.803Z,9.39
2022-11-16T02:49:11.430Z,9.43
2022-11-16T02:51:41.103Z,9.42
2022-11-16T02:54:12.969Z,9.36
2022-11-16T02:56:49.734Z,9.34
2022-11-16T02:59:18.041Z,9.32
2022-11-16T03:01:53.199Z,9.27
2022-11-16T03:04:26.626Z,9.31
2022-11-16T03:06:56.970Z,9.24
2022-11-16T03:09:29.590Z,9.25
2022-11-16T03:12:01.381Z,9.28
2022-11-16T03:14:35.022Z,9.23
2022-11-16T03:17:08.224Z,9.26
2022-11-16T03:19:42.582Z,9.28
2022-11-16T03:22:15.527Z,9.34
2022-11-16T03:24:44.050Z,9.30
2022-11-16T03:27:22.308Z,9.30
2022-11-16T03:30:00.091Z,9.30
2022-11-16T03:32:35.129Z,9.20
2022-11-16T03:35:09.122Z,9.20
2022-11-16T03:37:38.505Z,9.21
2022-11-16T03:40:08.624Z,9.26
2022-11-16T03:42:37.668Z,9.26
2022-11-16T03:45:06.510Z,9.27
2022-11-16T03:47:35.573Z,9.19
2022-11-16T03:50:03.412Z,9.17
2022-11-16T03:52:31.264Z,9.20
2022-11-16T03:54:58.998Z,9.11
2022-11-16T03:57:26.793Z,9.08
2022-11-16T03:59:54.509Z,9.05
2022-11-16T04:02:22.615Z,9.07
2022-11-16T04:05:09.276Z,9.07
2022-11-16T04:07:54.533Z,9.04
2022-11-16T04:10:39.916Z,9.08
2022-11-16T04:13:28.774Z,9.11
2022-11-16T04:16:14.349Z,9.11
2022-11-16T04:18:59.299Z,9.08
2022-11-16T04:21:48.976Z,9.03
2022-11-16T04:24:19.800Z,8.94
2022-11-16T04:27:09.130Z,8.99
2022-11-16T04:29:37.280Z,9.01
2022-11-16T04:32:23.113Z,9.02
2022-11-16T04:35:08.368Z,8.98
2022-11-16T04:37:53.428Z,8.95
2022-11-16T04:40:22.843Z,8.98
2022-11-16T04:42:53.724Z,8.93
2022-11-16T04:45:39.401Z,8.80
2022-11-16T04:48:08.132Z,8.92
2022-11-16T04:50:36.835Z,8.86
2022-11-16T04:53:07.076Z,8.87
2022-11-16T04:55:35.226Z,8.88
2022-11-16T04:58:04.113Z,8.93
2022-11-16T05:00:32.116Z,8.91
2022-11-16T05:03:01.608Z,8.95
2022-11-16T05:05:30.297Z,8.95
2022-11-16T05:07:58.161Z,9.00
2022-11-16T05:10:27.351Z,8.99
2022-11-16T05:12:55.095Z,9.07
2022-11-16T05:15:22.854Z,9.04
2022-11-16T05:17:51.113Z,8.98
2022-11-16T05:20:36.854Z,9.01
2022-11-16T05:23:04.628Z,9.07
2022-11-16T05:25:36.720Z,9.08
2022-11-16T05:28:05.055Z,9.08
2022-11-16T05:30:32.801Z,9.09
2022-11-16T05:33:03.267Z,9.08
2022-11-16T05:35:30.973Z,9.07
2022-11-16T05:37:58.819Z,9.09
2022-11-16T05:40:26.546Z,9.08
2022-11-16T05:42:55.605Z,9.12
2022-11-16T05:45:23.321Z,9.09
2022-11-16T05:47:51.030Z,9.11
2022-11-16T05:50:18.863Z,9.10
2022-11-16T05:52:46.616Z,9.11
2022-11-16T05:55:14.348Z,9.07
2022-11-16T05:57:42.104Z,9.05
2022-11-16T06:00:12.740Z,9.06
2022-11-16T06:02:40.485Z,9.10
2022-11-16T06:05:08.796Z,9.12
2022-11-16T06:10:21.483Z,9.11
2022-11-16T06:12:49.539Z,9.13
2022-11-16T06:15:18.976Z,9.13
2022-11-16T06:17:46.974Z,9.12
2022-11-16T06:20:14.671Z,9.11
2022-11-16T06:22:42.383Z,9.09
2022-11-16T06:25:11.816Z,9.04
2022-11-16T06:27:40.051Z,9.07
2022-11-16T06:30:08.916Z,9.06
2022-11-16T06:32:38.010Z,9.01
2022-11-16T06:35:06.810Z,8.94
2022-11-16T06:37:34.992Z,8.98
2022-11-16T06:40:02.713Z,8.90
2022-11-16T06:42:30.419Z,8.96
2022-11-16T06:44:58.136Z,8.98
2022-11-16T06:47:25.876Z,8.99
2022-11-16T06:49:55.221Z,9.01
2022-11-16T06:52:22.974Z,9.06
2022-11-16T06:54:50.663Z,9.08
2022-11-16T06:57:18.395Z,9.06
2022-11-16T06:59:46.159Z,9.13
2022-11-16T07:02:14.255Z,9.18
2022-11-16T07:04:42.020Z,9.17
2022-11-16T07:07:11.139Z,9.27
2022-11-16T07:09:38.957Z,9.33
2022-11-16T07:12:07.147Z,9.33
2022-11-16T07:14:34.893Z,9.47
2022-11-16T07:17:08.004Z,9.53
2022-11-16T07:19:37.861Z,9.49
2022-11-16T07:22:05.688Z,9.55
2022-11-16T07:24:34.905Z,9.68
2022-11-16T07:27:02.678Z,9.66
2022-11-16T07:29:31.262Z,9.70
2022-11-16T07:31:58.994Z,9.72
2022-11-16T07:34:27.387Z,9.74
2022-11-16T07:36:55.086Z,9.70
2022-11-16T07:39:22.807Z,9.68
2022-11-16T07:41:53.533Z,9.61
2022-11-16T07:44:21.289Z,9.49
2022-11-16T07:46:49.101Z,9.46
2022-11-16T07:49:20.232Z,9.42
2022-11-16T07:51:48.212Z,9.53
2022-11-16T07:54:16.879Z,9.33
2022-11-16T07:56:44.943Z,9.26
2022-11-16T07:59:14.009Z,9.13
2022-11-16T08:01:41.864Z,9.11
2022-11-16T08:04:09.593Z,9.14
2022-11-16T08:06:37.335Z,9.16
2022-11-16T08:09:05.147Z,9.17
2022-11-16T08:11:32.908Z,9.21
2022-11-16T08:14:00.646Z,9.30
2022-11-16T08:16:29.797Z,9.42
2022-11-16T08:18:57.510Z,9.58
2022-11-16T08:38:36.518Z,9.83
2022-11-16T08:43:50.694Z,9.90
2022-11-16T08:46:19.039Z,10.41
2022-11-16T08:48:47.214Z,10.31
2022-11-16T08:51:19.720Z,10.42
2022-11-16T08:53:50.090Z,10.54
2022-11-16T08:56:19.469Z,10.77
2022-11-16T08:58:50.279Z,10.93
2022-11-16T09:01:22.113Z,10.88
2022-11-16T09:03:50.542Z,11.15
2022-11-16T09:06:18.974Z,11.08
2022-11-16T09:08:47.642Z,11.09
2022-11-16T09:11:19.363Z,10.96
2022-11-16T09:13:48.906Z,10.99
2022-11-16T09:16:17.974Z,10.86
2022-11-16T09:18:47.094Z,10.79
2022-11-16T09:21:18.933Z,10.58
2022-11-16T09:23:47.383Z,10.63
2022-11-16T09:26:18.899Z,10.66
2022-11-16T09:28:46.650Z,10.77
2022-11-16T09:31:20.299Z,10.74
2022-11-16T09:33:51.017Z,10.87
2022-11-16T09:36:20.725Z,11.04
2022-11-16T09:39:29.091Z,11.12
2022-11-16T09:41:49.100Z,11.13
2022-11-16T09:44:34.377Z,11.17
2022-11-16T09:47:02.995Z,11.15
2022-11-16T09:49:33.567Z,11.15
2022-11-16T09:52:04.503Z,11.22
2022-11-16T09:54:36.890Z,11.33
2022-11-16T09:57:12.734Z,11.40
2022-11-16T09:59:44.543Z,11.45
2022-11-16T10:02:23.530Z,11.37
2022-11-16T10:04:58.288Z,11.27
2022-11-16T10:07:32.830Z,11.32
2022-11-16T10:10:00.897Z,11.65
2022-11-16T10:12:36.483Z,11.88
2022-11-16T10:15:36.419Z,12.11
2022-11-16T10:18:22.522Z,12.58
2022-11-16T10:21:10.639Z,12.91
2022-11-16T10:23:50.868Z,13.20
2022-11-16T10:26:30.359Z,13.32
2022-11-16T10:29:15.308Z,13.01
2022-11-16T10:31:58.180Z,13.06
2022-11-16T10:34:29.221Z,12.98
2022-11-16T10:37:03.204Z,13.17
2022-11-16T10:39:33.662Z,12.95
2022-11-16T10:42:07.864Z,13.07
2022-11-16T10:44:41.321Z,12.86
2022-11-16T10:47:16.543Z,12.63
2022-11-16T10:49:51.917Z,12.10
2022-11-16T10:52:19.829Z,11.97
2022-11-16T10:54:47.518Z,11.74
2022-11-16T10:57:15.379Z,11.67
2022-11-16T10:59:47.273Z,11.66
2022-11-16T11:02:34.585Z,11.34
2022-11-16T11:05:05.257Z,11.28
2022-11-16T11:07:35.025Z,11.13
2022-11-16T11:10:03.539Z,11.01
2022-11-16T11:12:40.146Z,11.21
2022-11-16T11:15:26.429Z,11.33
2022-11-16T11:18:14.354Z,11.17
2022-11-16T11:20:45.257Z,10.99
2022-11-16T11:23:16.950Z,11.07
2022-11-16T11:25:53.047Z,11.14
2022-11-16T11:28:26.166Z,10.92
2022-11-16T11:31:00.462Z,11.13
2022-11-16T11:33:30.655Z,10.99
2022-11-16T11:36:03.131Z,10.77
2022-11-16T11:38:31.683Z,10.91
2022-11-16T11:41:01.212Z,10.86
2022-11-16T11:43:30.946Z,11.05
2022-11-16T11:46:07.375Z,11.47
2022-11-16T11:48:42.424Z,11.56
2022-11-16T11:51:21.109Z,11.67
2022-11-16T11:53:56.109Z,11.66
2022-11-16T11:56:24.170Z,11.56
2022-11-16T11:58:52.389Z,11.44
2022-11-16T12:02:02.291Z,11.53
2022-11-16T12:05:08.113Z,11.44
2022-11-16T12:07:56.215Z,11.47
2022-11-16T12:10:34.647Z,11.63
2022-11-16T12:13:18.642Z,11.69
2022-11-16T12:16:00.110Z,11.73
2022-11-16T12:18:46.097Z,11.83
2022-11-16T12:21:19.254Z,12.19
2022-11-16T12:24:04.880Z,12.26
2022-11-16T12:26:46.052Z,12.45
2022-11-16T12:29:26.023Z,12.64
2022-11-16T12:32:13.734Z,12.59
2022-11-16T12:34:56.145Z,12.57
2022-11-16T12:37:31.701Z,13.03
2022-11-16T12:40:17.766Z,13.07
2022-11-16T12:42:54.148Z,13.21
2022-11-16T12:45:43.989Z,13.32
2022-11-16T12:48:50.993Z,13.34
2022-11-16T12:51:34.097Z,13.53
2022-11-16T12:54:18.424Z,13.44
2022-11-16T12:56:56.129Z,13.66
2022-11-16T12:59:37.368Z,13.11
2022-11-16T13:02:18.862Z,13.03
2022-11-16T13:04:51.335Z,12.80
2022-11-16T13:07:25.926Z,12.54
2022-11-16T13:10:00.221Z,12.55
2022-11-16T13:12:30.707Z,12.13
2022-11-16T13:15:01.514Z,12.24
2022-11-16T13:17:32.029Z,12.22
2022-11-16T13:20:20.353Z,12.29
2022-11-16T13:22:55.166Z,12.47
2022-11-16T13:25:33.025Z,12.34
2022-11-16T13:28:11.712Z,12.36
2022-11-16T13:30:51.513Z,12.56
2022-11-16T13:33:29.157Z,12.48
2022-11-16T13:35:57.071Z,12.56
2022-11-16T13:38:54.080Z,12.63
2022-11-16T13:41:32.319Z,12.43
2022-11-16T13:44:00.465Z,12.39
2022-11-16T13:46:55.276Z,12.43
2022-11-16T13:49:28.634Z,12.33
2022-11-16T13:52:11.362Z,12.23
2022-11-16T13:54:50.180Z,12.13
2022-11-16T13:57:23.964Z,12.28
2022-11-16T14:00:08.380Z,12.44
2022-11-16T14:02:38.657Z,12.43
2022-11-16T14:05:14.685Z,12.59
2022-11-16T14:07:44.959Z,12.55
2022-11-16T14:10:33.176Z,12.51
2022-11-16T14:13:04.284Z,12.37
2022-11-16T14:15:35.294Z,12.18
2022-11-16T14:18:36.965Z,12.42
2022-11-16T14:21:16.267Z,12.24
2022-11-16T14:24:05.752Z,11.93
2022-11-16T14:26:46.533Z,11.92
2022-11-16T14:29:29.871Z,12.05
2022-11-16T14:31:59.478Z,11.94
2022-11-16T14:34:31.323Z,11.70
2022-11-16T14:37:00.369Z,11.53
2022-11-16T14:39:32.779Z,11.36
2022-11-16T14:42:04.162Z,11.14
2022-11-16T14:44:39.126Z,11.18
2022-11-16T14:47:17.031Z,11.03
2022-11-16T14:49:47.804Z,10.70
2022-11-16T14:52:17.996Z,11.46
2022-11-16T14:54:53.101Z,10.98
2022-11-16T14:57:23.035Z,10.50
2022-11-16T15:00:09.330Z,11.02
2022-11-16T15:02:37.902Z,10.43
2022-11-16T15:05:06.413Z,10.42
2022-11-16T15:07:34.624Z,10.27
2022-11-16T15:10:02.425Z,10.26
2022-11-16T15:12:46.327Z,10.22
2022-11-16T15:15:18.323Z,10.24
2022-11-16T15:17:48.219Z,10.10
2022-11-16T15:20:20.123Z,10.08
2022-11-16T15:22:49.006Z,10.09
2022-11-16T15:25:29.734Z,10.07
2022-11-16T15:27:59.263Z,9.98
2022-11-16T15:30:30.397Z,9.92
2022-11-16T15:32:58.429Z,9.86
2022-11-16T15:35:29.838Z,9.80
2022-11-16T15:38:05.685Z,9.70
2022-11-16T15:40:34.796Z,9.70
2022-11-16T15:43:05.869Z,9.66
2022-11-16T15:45:35.732Z,9.73
2022-11-16T15:48:05.080Z,9.70
2022-11-16T15:50:33.169Z,9.69
2022-11-16T15:53:00.979Z,9.70
2022-11-16T15:55:35.218Z,9.62
2022-11-16T15:58:13.454Z,9.61
2022-11-16T16:00:43.346Z,9.74
2022-11-16T16:03:21.616Z,9.62
2022-11-16T16:05:49.894Z,9.62
2022-11-16T16:08:27.193Z,9.56
2022-11-16T16:11:04.083Z,9.36
2022-11-16T16:13:35.041Z,9.39
2022-11-16T16:16:29.988Z,9.36
2022-11-16T16:19:03.813Z,9.22
2022-11-16T16:21:44.302Z,9.47
2022-11-16T16:24:36.879Z,9.27
2022-11-16T16:27:11.923Z,9.02
2022-11-16T16:29:39.915Z,9.08
2022-11-16T16:32:13.550Z,8.95
2022-11-16T16:34:42.560Z,8.98
2022-11-16T16:37:13.024Z,8.87
2022-11-16T16:39:42.188Z,8.86
2022-11-16T16:42:12.900Z,8.90
2022-11-16T16:44:41.176Z,8.86
2022-11-16T16:47:10.780Z,8.92
2022-11-16T16:49:39.121Z,8.96
2022-11-16T16:52:07.952Z,8.96
2022-11-16T16:54:35.959Z,8.95
2022-11-16T16:57:04.535Z,8.95
2022-11-16T16:59:32.798Z,8.93
2022-11-16T17:02:01.796Z,8.98
2022-11-16T17:04:34.031Z,8.99
2022-11-16T17:07:03.059Z,9.00
2022-11-16T17:09:31.997Z,8.96
2022-11-16T17:12:00.886Z,8.96
2022-11-16T17:14:29.664Z,8.94
2022-11-16T17:16:58.095Z,8.95
2022-11-16T17:19:26.895Z,8.84
2022-11-16T17:21:56.870Z,8.69
2022-11-16T17:24:26.164Z,8.57
2022-11-16T17:26:56.137Z,8.47
2022-11-16T17:29:25.750Z,8.37
2022-11-16T17:31:55.233Z,8.19
2022-11-16T17:34:24.536Z,8.26
2022-11-16T17:36:53.843Z,8.25
2022-11-16T17:39:25.705Z,8.21
2022-11-16T17:41:55.257Z,8.21
2022-11-16T17:44:25.112Z,8.19
2022-11-16T17:46:55.151Z,8.14
2022-11-16T17:49:24.386Z,8.10
2022-11-16T17:51:53.187Z,8.14
2022-11-16T17:54:22.509Z,8.01
2022-11-16T17:56:54.386Z,7.96
2022-11-16T17:59:29.168Z,7.98
2022-11-16T18:01:59.032Z,8.82
2022-11-16T18:04:27.165Z,8.04
2022-11-16T18:06:56.041Z,7.93
2022-11-16T18:09:24.205Z,7.91
2022-11-16T18:11:53.370Z,8.17
2022-11-16T18:14:21.307Z,8.25
2022-11-16T18:16:49.099Z,8.00
2022-11-16T18:19:18.326Z,7.87
2022-11-16T18:21:46.677Z,7.90
2022-11-16T18:24:15.206Z,7.87
2022-11-16T18:26:43.019Z,7.81
2022-11-16T18:29:15.761Z,7.77
2022-11-16T18:31:43.544Z,7.80
2022-11-16T18:34:13.287Z,7.62
2022-11-16T18:36:41.233Z,7.60
2022-11-16T18:39:09.314Z,7.55
2022-11-16T18:41:38.285Z,7.71
2022-11-16T18:44:06.308Z,7.41
2022-11-16T18:46:35.444Z,7.40
2022-11-16T18:49:03.186Z,7.42
2022-11-16T18:51:30.974Z,7.45
2022-11-16T18:53:58.746Z,7.38
2022-11-16T18:56:27.212Z,7.30
2022-11-16T18:58:55.090Z,7.38
2022-11-16T19:01:24.677Z,7.38
2022-11-16T19:03:55.477Z,7.41
2022-11-16T19:06:24.266Z,7.38
2022-11-16T19:08:59.449Z,7.33
2022-11-16T19:11:28.721Z,7.58
2022-11-16T19:13:59.999Z,7.37
2022-11-16T19:16:28.287Z,7.28
2022-11-16T19:18:57.929Z,7.37
2022-11-16T19:21:26.162Z,7.16
2022-11-16T19:23:55.865Z,7.36
2022-11-16T19:26:25.779Z,7.23
2022-11-16T19:28:54.500Z,7.13
2022-11-16T19:31:24.061Z,7.14
2022-11-16T19:33:56.157Z,7.24
2022-11-16T19:36:25.530Z,7.21
2022-11-16T19:38:53.746Z,7.20
2022-11-16T19:41:22.595Z,7.15
2022-11-16T19:43:52.689Z,7.17
2022-11-16T19:46:21.680Z,7.17
2022-11-16T19:48:50.226Z,7.27
2022-11-16T19:51:20.300Z,7.34
2022-11-16T19:53:50.045Z,7.29
2022-11-16T19:56:20.349Z,7.32
2022-11-16T19:58:48.753Z,7.30
2022-11-16T20:01:18.420Z,7.25
2022-11-16T20:03:46.847Z,7.17
2022-11-16T20:06:17.254Z,7.04
2022-11-16T20:08:50.156Z,7.09
2022-11-16T20:11:20.683Z,7.02
2022-11-16T20:13:49.218Z,7.06
2022-11-16T20:16:18.130Z,7.06
2022-11-16T20:18:46.939Z,6.96
2022-11-16T20:21:20.022Z,7.07
2022-11-16T20:23:49.976Z,7.40
2022-11-16T20:26:18.227Z,7.10
2022-11-16T20:28:46.444Z,6.89
2022-11-16T20:31:15.882Z,7.03
2022-11-16T20:33:44.549Z,7.01
2022-11-16T20:36:13.063Z,7.04
2022-11-16T20:38:41.004Z,7.13
2022-11-16T20:41:11.823Z,7.30
2022-11-16T20:43:40.406Z,7.11
2022-11-16T20:46:09.097Z,7.29
2022-11-16T20:48:37.453Z,7.27
2022-11-16T20:51:06.065Z,7.22
2022-11-16T20:53:34.549Z,7.19
2022-11-16T20:56:03.987Z,7.18
2022-11-16T20:58:33.863Z,7.15
2022-11-16T21:01:01.955Z,7.12
2022-11-16T21:03:30.217Z,7.25
2022-11-16T21:05:58.766Z,7.27
2022-11-16T21:08:27.331Z,7.27
2022-11-16T21:10:55.517Z,7.34
2022-11-16T21:13:40.886Z,7.35
2022-11-16T21:16:12.286Z,7.37
2022-11-16T21:18:41.397Z,7.37
2022-11-16T21:21:12.201Z,7.37
2022-11-16T21:23:43.123Z,7.38
2022-11-16T21:26:14.152Z,7.40
2022-11-16T21:28:44.711Z,7.53
2022-11-16T21:31:16.456Z,7.52
2022-11-16T21:33:45.513Z,7.48
2022-11-16T21:36:14.851Z,7.52
2022-11-16T21:38:43.458Z,7.58
2022-11-16T21:41:13.120Z,7.64
2022-11-16T21:43:41.497Z,7.69
2022-11-16T21:46:16.967Z,7.75
2022-11-16T21:48:45.446Z,7.69
2022-11-16T21:51:14.543Z,7.76
2022-11-16T21:53:42.644Z,7.78
2022-11-16T21:56:13.927Z,7.80
2022-11-16T21:58:42.599Z,7.80
2022-11-16T22:01:12.007Z,7.81
2022-11-16T22:03:41.647Z,7.80
2022-11-16T22:06:32.308Z,7.75
2022-11-16T22:09:00.391Z,7.79
2022-11-16T22:11:28.407Z,7.83
2022-11-16T22:13:56.298Z,7.83
2022-11-16T22:16:24.362Z,7.62
2022-11-16T22:18:53.640Z,7.82
2022-11-16T22:21:21.517Z,7.80
2022-11-16T22:23:49.663Z,7.80
2022-11-16T22:26:18.147Z,7.79
2022-11-16T22:28:46.085Z,7.76
2022-11-16T22:31:16.364Z,7.82
2022-11-16T22:33:44.264Z,7.87
2022-11-16T22:36:13.901Z,7.99
2022-11-16T22:38:41.831Z,8.01
2022-11-16T22:41:10.642Z,7.52
2022-11-16T22:43:39.133Z,7.91
2022-11-16T22:46:07.648Z,7.93
2022-11-16T22:48:37.556Z,7.92
2022-11-16T22:51:07.853Z,7.97
2022-11-16T22:53:37.655Z,8.02
2022-11-16T22:56:07.777Z,8.06
2022-11-16T22:58:35.817Z,7.94
2022-11-16T23:01:04.535Z,7.91
2022-11-16T23:03:32.763Z,7.96
2022-11-16T23:06:00.997Z,7.95
2022-11-16T23:08:29.834Z,7.98
2022-11-16T23:11:21.592Z,7.96
2022-11-16T23:14:07.345Z,8.18
2022-11-16T23:16:35.728Z,8.39
2022-11-16T23:19:24.038Z,8.40
2022-11-16T23:22:09.065Z,8.60
2022-11-16T23:24:53.770Z,8.31
2022-11-16T23:27:32.332Z,8.36
2022-11-16T23:30:05.370Z,8.47
2022-11-16T23:32:36.039Z,8.89
2022-11-16T23:35:04.011Z,8.60
2022-11-16T23:37:31.959Z,8.65
2022-11-16T23:40:00.110Z,8.60
2022-11-16T23:42:47.303Z,8.57
2022-11-16T23:45:15.387Z,8.61
2022-11-16T23:47:43.289Z,8.64
2022-11-16T23:50:11.160Z,8.70
2022-11-16T23:52:39.051Z,8.75
2022-11-16T23:55:08.005Z,8.75
2022-11-16T23:57:37.304Z,8.70
